Eastside, Oregon
Current Conditions -  °F | °C
As of 2:35 AM on Thursday 18 Dec 2014 (Local Time) from KOTH Reporting Station
Overcast Overcast  
Wind Chill: 45°   Ceiling: 3000
Heat Index: 48°   Visibility: 10mi
Dew Point: 48°   Wind: 7mph
Humidity: 100%   Direction: 160°SSE
Pressure: 29.95"   Gusts: NA
Location:  43.3057°N, 124.056°W
Report Text: KOTH 181035Z 16006KT 10SM BKN030 OVC041 09/09 A2995 RMK AO1
Loading
Personal Weather Stations






























Interactive Weather Map New forecast layout! Learn more

10-Day Weather Forecast

Advertisements
Track Severe Weather on mobile